Cedar Hill, Tennessee
Current Conditions -  °F | °C
As of 11:52 PM on Tuesday 21 Oct 2014 (Local Time) from KCKV Reporting Station
Clear Clear  
Wind Chill: 45°   Ceiling: Unl
Heat Index: 48°   Visibility: 10mi
Dew Point: 42°   Wind: 6mph
Humidity: 80%   Direction: 30°NNE
Pressure: 30.16"   Gusts: NA
Location:  36.55°N, 87°W
Report Text: KCKV 220452Z AUTO 03005KT 10SM CLR 09/06 A3016 RMK AO2 SLP210 T00890056
Loading
Personal Weather Stations






























Interactive Weather Map
Tropical Storm Tracking
New forecast layout! Learn more

10-Day Weather Forecast

Advertisements
Track Severe Weather on mobile